Gurley, Alabama
Current Conditions -  °F | °C
As of 4:35 AM on Thursday 27 Nov 2014 (Local Time) from KMDQ Reporting Station
Broken Clouds Broken Clouds  
Wind Chill: 29°   Ceiling: 6000
Heat Index: 36°   Visibility: 10mi
Dew Point: 30°   Wind: 8mph
Humidity: 81%   Direction: 290°WNW
Pressure: 30.2"   Gusts: NA
Location:  34.7°N, 86.38°W
Report Text: KMDQ 271035Z AUTO 29007KT 10SM SCT029 BKN060 02/M01 A3020 RMK AO2
Loading
Personal Weather Stations






























Interactive Weather Map New forecast layout! Learn more

10-Day Weather Forecast

Advertisements
Track Severe Weather on mobile